CheckWX is a tool to help pilots better visualize weather data.  It is not intended as a substitute for an official pre-flight weather briefing.

14:01:06 UTC

CYXT METAR
Terrace Airport
Terrace, Canada
Current

1 hour ago

CYXT 211300Z 16018G25KT 15SM -RA FEW007 SCT038 BKN060 OVC070 13/12 A2978 RMK CF2SC2SC2AC2 SLP089 DENSITY ALT 900FT
Observed
Sep-21 @ 13:00 UTC
Wind
  • 160° at 18 KTS
  • Gusting to 25 KTS
Visibility
15 SM
Flight Rules
VFR
Conditions
Light Rain
Cloud Levels
  • Few at 700' AGL
  • Scattered at 3,800' AGL
  • Broken at 6,000' AGL
  • Overcast at 7,000' AGL
Temperature
13°C / 55°F
Dewpoint
12°C / 54°F
Humidity
94%
Altimeter
29.78" Hg
Pressure
1008.42 hPa
Previous

2 hours ago

CYXT 211200Z 16018G25KT 15SM -RA FEW007 BKN035 OVC120 13/12 A2979 RMK CF2SC4AC2 SLP094 DENSITY ALT 900FT
Observed
Sep-21 @ 12:00 UTC
Wind
  • 160° at 18 KTS
  • Gusting to 25 KTS
Visibility
15 SM
Flight Rules
VFR
Conditions
Light Rain
Cloud Levels
  • Few at 700' AGL
  • Broken at 3,500' AGL
  • Overcast at 12,000' AGL
Temperature
13°C / 55°F
Dewpoint
12°C / 54°F
Humidity
94%
Altimeter
29.79" Hg
Pressure
1008.82 hPa
Previous

3 hours ago

CYXT 211100Z 16017G26KT 15SM -RA SCT008 BKN070 OVC120 14/12 A2982 RMK SC3AC3AC2 PRESFR SLP101 DENSITY ALT 900FT
Observed
Sep-21 @ 11:00 UTC
Wind
  • 160° at 17 KTS
  • Gusting to 26 KTS
Visibility
15 SM
Flight Rules
VFR
Conditions
Light Rain
Cloud Levels
  • Scattered at 800' AGL
  • Broken at 7,000' AGL
  • Overcast at 12,000' AGL
Temperature
14°C / 57°F
Dewpoint
12°C / 54°F
Humidity
88%
Altimeter
29.82" Hg
Pressure
1009.82 hPa